createdAt,value
2022-10-31T00:01:33.091Z,101197.81
2022-10-31T00:04:01.162Z,101196.91
2022-10-31T00:06:29.456Z,101202.22
2022-10-31T00:08:59.487Z,101199.56
2022-10-31T00:11:27.364Z,101203.13
2022-10-31T00:13:55.467Z,101204.00
2022-10-31T00:16:25.060Z,101212.88
2022-10-31T00:18:55.477Z,101203.97
2022-10-31T00:21:23.676Z,101201.31
2022-10-31T00:23:51.555Z,101206.63
2022-10-31T00:26:19.752Z,101208.41
2022-10-31T00:28:47.793Z,101203.97
2022-10-31T00:31:16.054Z,101216.34
2022-10-31T00:33:43.908Z,101214.59
2022-10-31T00:36:15.592Z,101212.78
2022-10-31T00:38:43.888Z,101211.91
2022-10-31T00:41:12.456Z,101221.66
2022-10-31T00:43:42.405Z,101226.09
2022-10-31T00:46:10.280Z,101229.63
2022-10-31T00:48:38.075Z,101223.41
2022-10-31T00:51:06.329Z,101223.41
2022-10-31T00:53:35.537Z,101225.19
2022-10-31T00:56:03.878Z,101237.56
2022-10-31T00:58:31.696Z,101231.38
2022-10-31T01:00:59.492Z,101230.50
2022-10-31T01:03:29.065Z,101240.22
2022-10-31T01:06:01.773Z,101239.34
2022-10-31T01:08:30.730Z,101243.78
2022-10-31T01:11:09.256Z,101234.91
2022-10-31T01:13:37.585Z,101233.13
2022-10-31T01:16:07.577Z,101238.44
2022-10-31T01:18:36.112Z,101241.09
2022-10-31T01:21:08.606Z,101240.19
2022-10-31T01:23:36.993Z,101244.63
2022-10-31T01:26:10.414Z,101248.13
2022-10-31T01:28:40.113Z,101245.47
2022-10-31T01:31:09.990Z,101248.13
2022-10-31T01:33:39.085Z,101244.56
2022-10-31T01:36:15.939Z,101241.91
2022-10-31T01:38:43.782Z,101239.22
2022-10-31T01:41:15.551Z,101242.75
2022-10-31T01:43:52.552Z,101252.47
2022-10-31T01:46:26.178Z,101255.09
2022-10-31T01:48:56.036Z,101256.88
2022-10-31T01:51:28.219Z,101256.84
2022-10-31T01:53:58.771Z,101253.28
2022-10-31T01:56:28.452Z,101259.47
2022-10-31T01:58:58.374Z,101256.81
2022-10-31T02:01:27.162Z,101263.00
2022-10-31T02:03:56.971Z,101262.97
2022-10-31T02:06:35.191Z,101269.13
2022-10-31T02:09:05.637Z,101269.09
2022-10-31T02:11:36.734Z,101266.47
2022-10-31T02:14:04.979Z,101269.09
2022-10-31T02:16:33.095Z,101262.88
2022-10-31T02:19:01.127Z,101265.53
2022-10-31T02:21:39.609Z,101273.50
2022-10-31T02:24:38.888Z,101273.50
2022-10-31T02:27:23.588Z,101268.16
2022-10-31T02:30:14.406Z,101265.47
2022-10-31T02:33:08.767Z,101278.72
2022-10-31T02:35:52.055Z,101262.75
2022-10-31T02:38:31.767Z,101275.13
2022-10-31T02:41:06.486Z,101289.28
2022-10-31T02:43:51.020Z,101275.94
2022-10-31T02:46:29.893Z,101277.69
2022-10-31T02:49:07.301Z,101284.78
2022-10-31T02:51:35.504Z,101281.22
2022-10-31T02:54:03.307Z,101284.75
2022-10-31T02:56:31.066Z,101282.09
2022-10-31T02:59:01.881Z,101293.59
2022-10-31T03:01:44.340Z,101296.25
2022-10-31T03:04:46.507Z,101305.06
2022-10-31T03:07:26.015Z,101313.91
2022-10-31T03:10:05.384Z,101309.50
2022-10-31T03:12:44.545Z,101306.81
2022-10-31T03:15:24.827Z,101310.38
2022-10-31T03:17:59.324Z,101314.75
2022-10-31T03:20:35.626Z,101313.00
2022-10-31T03:23:06.415Z,101326.25
2022-10-31T03:25:37.962Z,101324.44
2022-10-31T03:28:08.112Z,101318.25
2022-10-31T03:30:39.684Z,101320.00
2022-10-31T03:33:11.047Z,101328.84
2022-10-31T03:35:46.387Z,101332.38
2022-10-31T03:38:15.692Z,101332.31
2022-10-31T03:40:48.123Z,101333.19
2022-10-31T03:43:23.948Z,101334.97
2022-10-31T03:45:51.993Z,101344.69
2022-10-31T03:48:22.682Z,101346.44
2022-10-31T03:51:16.859Z,101345.50
2022-10-31T03:53:52.383Z,101345.50
2022-10-31T03:56:27.727Z,101347.19
2022-10-31T03:59:02.451Z,101348.94
2022-10-31T04:01:33.612Z,101352.44
2022-10-31T04:04:02.596Z,101344.47
2022-10-31T04:06:33.112Z,101349.75
2022-10-31T04:09:06.113Z,101356.81
2022-10-31T04:11:38.295Z,101352.38
2022-10-31T04:14:27.487Z,101349.72
2022-10-31T04:16:56.448Z,101351.50
2022-10-31T04:19:30.924Z,101348.88
2022-10-31T04:22:00.026Z,101360.38
2022-10-31T04:24:27.956Z,101356.88
2022-10-31T04:26:55.760Z,101350.69
2022-10-31T04:29:24.959Z,101346.28
2022-10-31T04:31:52.914Z,101356.03
2022-10-31T04:34:21.141Z,101360.47
2022-10-31T04:36:49.115Z,101359.56
2022-10-31T04:39:24.200Z,101368.44
2022-10-31T04:42:13.316Z,101371.09
2022-10-31T04:44:41.230Z,101369.34
2022-10-31T04:47:09.589Z,101368.44
2022-10-31T04:49:38.123Z,101364.03
2022-10-31T04:52:07.009Z,101366.69
2022-10-31T04:54:36.139Z,101366.66
2022-10-31T04:57:22.311Z,101371.06
2022-10-31T04:59:50.503Z,101379.00
2022-10-31T05:02:18.332Z,101374.53
2022-10-31T05:04:55.477Z,101376.31
2022-10-31T05:07:23.762Z,101373.66
2022-10-31T05:09:52.926Z,101378.94
2022-10-31T05:12:21.924Z,101386.88
2022-10-31T05:15:15.949Z,101391.25
2022-10-31T05:18:03.079Z,101392.09
2022-10-31T05:20:51.069Z,101386.78
2022-10-31T05:23:26.874Z,101384.13
2022-10-31T05:25:56.732Z,101391.16
2022-10-31T05:28:24.945Z,101377.88
2022-10-31T05:30:52.835Z,101376.94
2022-10-31T05:33:21.859Z,101376.06
2022-10-31T05:36:08.852Z,101378.69
2022-10-31T05:38:44.835Z,101373.38
2022-10-31T05:41:19.780Z,101378.66
2022-10-31T05:43:48.824Z,101382.16
2022-10-31T05:46:19.142Z,101379.50
2022-10-31T05:49:09.971Z,101375.94
2022-10-31T05:52:16.082Z,101377.63
2022-10-31T05:54:52.221Z,101378.50
2022-10-31T05:57:21.403Z,101374.97
2022-10-31T05:59:53.939Z,101382.00
2022-10-31T06:02:24.142Z,101393.47
2022-10-31T06:05:18.467Z,101405.81
2022-10-31T06:07:46.311Z,101409.34
2022-10-31T06:10:14.162Z,101412.00
2022-10-31T06:12:43.559Z,101399.63
2022-10-31T06:15:33.573Z,101395.19
2022-10-31T06:18:03.618Z,101399.63
2022-10-31T06:20:35.773Z,101393.38
2022-10-31T06:23:05.460Z,101393.38
2022-10-31T06:25:34.913Z,101400.41
2022-10-31T06:28:06.177Z,101398.66
2022-10-31T06:30:47.887Z,101406.59
2022-10-31T06:33:15.722Z,101412.75
2022-10-31T06:35:52.081Z,101410.97
2022-10-31T06:38:19.961Z,101409.25
2022-10-31T06:40:47.944Z,101428.69
2022-10-31T06:43:29.050Z,101434.03
2022-10-31T06:46:17.841Z,101439.41
2022-10-31T06:49:08.751Z,101443.88
2022-10-31T06:51:44.045Z,101444.03
2022-10-31T06:54:12.314Z,101440.66
2022-10-31T06:56:40.172Z,101443.47
2022-10-31T06:59:09.707Z,101439.22
2022-10-31T07:02:00.718Z,101452.56
2022-10-31T07:04:28.615Z,101461.53
2022-10-31T07:06:57.250Z,101457.28
2022-10-31T07:09:25.412Z,101458.34
2022-10-31T07:11:54.618Z,101454.97
2022-10-31T07:14:23.904Z,101454.22
2022-10-31T07:16:52.829Z,101463.16
2022-10-31T07:19:26.310Z,101465.03
2022-10-31T07:21:54.080Z,101466.88
2022-10-31T07:24:21.900Z,101470.50
2022-10-31T07:27:09.655Z,101463.50
2022-10-31T07:29:39.348Z,101469.81
2022-10-31T07:32:07.180Z,101477.00
2022-10-31T07:34:37.125Z,101479.72
2022-10-31T07:37:22.985Z,101480.69
2022-10-31T07:39:50.791Z,101485.19
2022-10-31T07:42:18.575Z,101488.81
2022-10-31T07:44:50.529Z,101479.09
2022-10-31T07:47:41.191Z,101480.94
2022-10-31T07:50:34.772Z,101476.50
2022-10-31T07:53:21.180Z,101470.31
2022-10-31T07:55:53.524Z,101476.56
2022-10-31T07:58:21.453Z,101475.69
2022-10-31T08:00:50.896Z,101478.38
2022-10-31T08:03:30.059Z,101474.84
2022-10-31T08:06:16.788Z,101481.09
2022-10-31T08:08:47.448Z,101481.97
2022-10-31T08:11:15.366Z,101480.22
2022-10-31T08:13:44.701Z,101479.31
2022-10-31T08:16:17.584Z,101480.22
2022-10-31T08:18:56.516Z,101472.19
2022-10-31T08:21:24.975Z,101482.00
2022-10-31T08:23:52.825Z,101473.09
2022-10-31T08:26:24.251Z,101467.75
2022-10-31T08:28:55.601Z,101476.66
2022-10-31T08:31:32.905Z,101486.41
2022-10-31T08:34:30.994Z,101485.50
2022-10-31T08:37:20.842Z,101473.06
2022-10-31T08:39:53.483Z,101481.03
2022-10-31T08:42:22.464Z,101473.91
2022-10-31T08:44:50.303Z,101467.69
2022-10-31T08:47:23.392Z,101468.56
2022-10-31T08:49:51.218Z,101470.31
2022-10-31T08:52:19.120Z,101464.97
2022-10-31T08:54:48.986Z,101459.59
2022-10-31T08:57:35.230Z,101461.38
2022-10-31T09:00:03.217Z,101463.13
2022-10-31T09:02:59.781Z,101466.66
2022-10-31T09:05:30.816Z,101463.97
2022-10-31T09:08:00.105Z,101463.03
2022-10-31T09:10:29.769Z,101463.03
2022-10-31T09:12:59.027Z,101459.44
2022-10-31T09:15:37.371Z,101454.06
2022-10-31T09:18:22.933Z,101451.38
2022-10-31T09:20:56.557Z,101457.59
2022-10-31T09:23:25.163Z,101445.97
2022-10-31T09:25:54.893Z,101456.66
2022-10-31T09:28:39.803Z,101459.25
2022-10-31T09:31:13.229Z,101455.69
2022-10-31T09:34:04.885Z,101460.13
2022-10-31T09:36:39.120Z,101457.44
2022-10-31T09:39:14.123Z,101463.66
2022-10-31T09:42:04.316Z,101460.94
2022-10-31T09:44:46.463Z,101455.59
2022-10-31T09:47:44.204Z,101455.56
2022-10-31T09:50:38.014Z,101464.47
2022-10-31T09:53:33.318Z,101468.97
2022-10-31T09:56:02.148Z,101468.06
2022-10-31T09:58:34.187Z,101461.81
2022-10-31T10:01:06.500Z,101469.84
2022-10-31T10:03:40.573Z,101474.25
2022-10-31T10:06:31.759Z,101461.78
2022-10-31T10:09:18.211Z,101459.97
2022-10-31T10:12:17.043Z,101462.63
2022-10-31T10:15:22.167Z,101459.03
2022-10-31T10:18:01.731Z,101459.00
2022-10-31T10:20:39.118Z,101461.66
2022-10-31T10:23:34.221Z,101456.25
2022-10-31T10:26:11.220Z,101458.91
2022-10-31T10:28:42.702Z,101462.44
2022-10-31T10:31:15.935Z,101454.47
2022-10-31T10:33:53.067Z,101460.72
2022-10-31T10:36:27.852Z,101458.94
2022-10-31T10:39:01.532Z,101457.16
2022-10-31T10:41:34.698Z,101457.16
2022-10-31T10:44:03.448Z,101461.56
2022-10-31T10:46:59.497Z,101455.31
2022-10-31T10:49:34.836Z,101458.84
2022-10-31T10:55:11.410Z,101446.31
2022-10-31T10:57:51.268Z,101449.00
2022-10-31T11:00:23.690Z,101446.28
2022-10-31T11:02:52.238Z,101445.34
2022-10-31T11:05:26.229Z,101432.84
2022-10-31T11:07:54.083Z,101439.06
2022-10-31T11:10:23.294Z,101439.03
2022-10-31T11:13:07.993Z,101427.47
2022-10-31T11:15:41.650Z,101429.28
2022-10-31T11:20:54.224Z,101416.78
2022-10-31T11:23:24.329Z,101420.31
2022-10-31T11:25:57.188Z,101418.50
2022-10-31T11:28:25.670Z,101416.75
2022-10-31T11:30:56.527Z,101412.28
2022-10-31T11:33:31.802Z,101407.78
2022-10-31T11:36:01.876Z,101412.25
2022-10-31T11:38:36.877Z,101413.09
2022-10-31T11:41:14.536Z,101413.97
2022-10-31T11:43:50.510Z,101405.94
2022-10-31T11:46:23.391Z,101403.22
2022-10-31T11:48:53.786Z,101405.88
2022-10-31T11:51:27.126Z,101404.09
2022-10-31T11:54:01.702Z,101399.59
2022-10-31T11:56:41.590Z,101396.03
2022-10-31T11:59:22.946Z,101404.06
2022-10-31T12:01:52.961Z,101399.59
2022-10-31T12:04:27.210Z,101392.50
2022-10-31T12:06:55.753Z,101391.56
2022-10-31T12:09:25.763Z,101385.31
2022-10-31T12:12:16.294Z,101388.81
2022-10-31T12:14:54.681Z,101387.94
2022-10-31T12:17:25.682Z,101382.59
2022-10-31T12:20:05.863Z,101380.78
2022-10-31T12:22:45.330Z,101382.53
2022-10-31T12:25:33.696Z,101375.41
2022-10-31T12:28:15.674Z,101370.94
2022-10-31T12:30:53.549Z,101377.13
2022-10-31T12:33:41.337Z,101362.00
2022-10-31T12:36:21.636Z,101362.00
2022-10-31T12:39:11.123Z,101362.03
2022-10-31T12:41:53.098Z,101361.09
2022-10-31T12:44:56.215Z,101359.34
2022-10-31T12:47:46.160Z,101359.38
2022-10-31T12:50:28.976Z,101355.81
2022-10-31T12:53:05.755Z,101347.84
2022-10-31T12:55:43.544Z,101341.63
2022-10-31T12:58:16.410Z,101338.03
2022-10-31T13:00:49.722Z,101332.72
2022-10-31T13:03:27.269Z,101332.72
2022-10-31T13:05:58.681Z,101334.50
2022-10-31T13:08:30.900Z,101335.38
2022-10-31T13:11:07.990Z,101333.63
2022-10-31T13:13:40.101Z,101330.97
2022-10-31T13:16:15.652Z,101332.78
2022-10-31T13:18:48.682Z,101323.84
2022-10-31T13:21:23.112Z,101331.94
2022-10-31T13:23:53.001Z,101320.34
2022-10-31T13:26:35.116Z,101323.03
2022-10-31T13:29:08.805Z,101328.41
2022-10-31T13:31:45.934Z,101320.41
2022-10-31T13:34:25.054Z,101324.84
2022-10-31T13:37:03.027Z,101322.16
2022-10-31T13:39:40.923Z,101315.06
2022-10-31T13:42:18.580Z,101311.50
2022-10-31T13:44:46.356Z,101315.09
2022-10-31T13:47:27.179Z,101329.38
2022-10-31T13:50:07.311Z,101312.47
2022-10-31T13:52:35.077Z,101319.63
2022-10-31T13:55:02.822Z,101316.97
2022-10-31T13:57:37.072Z,101315.25
2022-10-31T14:00:09.193Z,101305.47
2022-10-31T14:02:51.033Z,101307.28
2022-10-31T14:05:25.874Z,101299.28
2022-10-31T14:07:54.873Z,101293.06
2022-10-31T14:10:27.947Z,101300.25
2022-10-31T14:13:05.150Z,101293.13
2022-10-31T14:15:33.403Z,101298.47
2022-10-31T14:18:05.209Z,101294.94
2022-10-31T14:20:39.916Z,101293.22
2022-10-31T14:23:41.107Z,101293.22
2022-10-31T14:26:31.996Z,101286.09
2022-10-31T14:29:01.286Z,101291.47
2022-10-31T14:31:37.792Z,101283.50
2022-10-31T14:34:24.739Z,101279.94
2022-10-31T14:37:04.415Z,101280.88
2022-10-31T14:39:39.524Z,101274.66
2022-10-31T14:42:22.450Z,101265.81
2022-10-31T14:45:12.185Z,101272.03
2022-10-31T14:47:47.603Z,101267.59
2022-10-31T14:50:25.166Z,101264.03
2022-10-31T14:52:56.126Z,101264.09
2022-10-31T14:55:25.141Z,101264.09
2022-10-31T14:57:56.285Z,101253.44
2022-10-31T15:00:26.212Z,101250.78
2022-10-31T15:03:07.318Z,101258.81
2022-10-31T15:05:43.174Z,101257.97
2022-10-31T15:08:16.160Z,101254.44
2022-10-31T15:10:47.775Z,101253.56
2022-10-31T15:13:22.431Z,101253.56
2022-10-31T15:15:52.564Z,101255.34
2022-10-31T15:18:23.556Z,101255.34
2022-10-31T15:20:54.672Z,101253.59
2022-10-31T15:23:25.516Z,101257.13
2022-10-31T15:26:00.632Z,101238.44
2022-10-31T15:28:29.186Z,101234.03
2022-10-31T15:30:58.300Z,101228.69
2022-10-31T15:33:32.411Z,101237.56
2022-10-31T15:36:07.744Z,101228.69
2022-10-31T15:38:35.650Z,101233.13
2022-10-31T15:41:06.819Z,101221.59
2022-10-31T15:43:38.529Z,101215.38
2022-10-31T15:46:11.215Z,101219.84
2022-10-31T15:48:41.554Z,101224.31
2022-10-31T15:51:10.737Z,101211.00
2022-10-31T15:53:45.806Z,101211.00
2022-10-31T15:56:20.918Z,101207.47
2022-10-31T15:58:50.439Z,101206.56
2022-10-31T16:01:24.430Z,101216.38
2022-10-31T16:04:05.231Z,101211.06
2022-10-31T16:06:35.924Z,101207.50
2022-10-31T16:09:04.938Z,101209.31
2022-10-31T16:11:37.534Z,101208.44
2022-10-31T16:14:09.515Z,101212.88
2022-10-31T16:16:44.563Z,101207.56
2022-10-31T16:19:20.988Z,101210.28
2022-10-31T16:21:52.291Z,101205.81
2022-10-31T16:24:25.191Z,101199.59
2022-10-31T16:26:55.076Z,101206.72
2022-10-31T16:29:34.534Z,101200.47
2022-10-31T16:32:02.695Z,101197.81
2022-10-31T16:34:30.488Z,101198.75
2022-10-31T16:36:59.719Z,101194.28
2022-10-31T16:39:28.003Z,101203.19
2022-10-31T16:41:58.236Z,101205.00
2022-10-31T16:44:27.874Z,101197.00
2022-10-31T16:47:11.177Z,101195.25
2022-10-31T16:49:39.002Z,101184.56
2022-10-31T16:52:08.201Z,101193.47
2022-10-31T16:54:36.041Z,101181.03
2022-10-31T16:57:06.045Z,101177.47
2022-10-31T16:59:35.256Z,101178.38
2022-10-31T17:02:05.175Z,101189.94
2022-10-31T17:04:33.092Z,101181.94
2022-10-31T17:07:00.960Z,101186.41
2022-10-31T17:09:30.044Z,101171.28
2022-10-31T17:11:58.071Z,101172.19
2022-10-31T17:14:26.106Z,101173.09
2022-10-31T17:16:53.973Z,101179.31
2022-10-31T17:19:21.747Z,101181.97
2022-10-31T17:21:49.623Z,101175.78
2022-10-31T17:24:17.527Z,101169.56
2022-10-31T17:26:47.210Z,101173.13
2022-10-31T17:29:15.196Z,101166.91
2022-10-31T17:31:43.685Z,101169.59
2022-10-31T17:34:11.511Z,101163.38
2022-10-31T17:36:40.341Z,101161.59
2022-10-31T17:39:09.639Z,101161.59
2022-10-31T17:41:37.452Z,101160.72
2022-10-31T17:44:06.619Z,101157.19
2022-10-31T17:46:34.398Z,101158.97
2022-10-31T17:49:03.127Z,101149.19
2022-10-31T17:51:30.904Z,101151.88
2022-10-31T17:53:59.104Z,101143.88
2022-10-31T17:56:27.111Z,101142.13
2022-10-31T17:58:57.174Z,101138.53
2022-10-31T18:01:26.689Z,101136.78
2022-10-31T18:03:54.564Z,101141.22
2022-10-31T18:06:22.353Z,101148.34
2022-10-31T18:08:50.088Z,101144.81
2022-10-31T18:11:20.499Z,101144.81
2022-10-31T18:13:48.260Z,101146.63
2022-10-31T18:16:19.098Z,101140.38
2022-10-31T18:18:53.745Z,101138.63
2022-10-31T18:21:22.055Z,101133.31
2022-10-31T18:23:49.819Z,101133.31
2022-10-31T18:26:17.580Z,101136.00
2022-10-31T18:28:45.306Z,101138.72
2022-10-31T18:31:13.299Z,101137.81
2022-10-31T18:33:42.495Z,101135.16
2022-10-31T18:36:12.843Z,101125.38
2022-10-31T18:38:41.937Z,101122.72
2022-10-31T18:41:10.453Z,101124.50
2022-10-31T18:43:38.455Z,101125.41
2022-10-31T18:46:08.872Z,101128.97
2022-10-31T18:48:37.232Z,101118.31
2022-10-31T18:51:06.289Z,101120.06
2022-10-31T18:53:35.744Z,101122.75
2022-10-31T18:56:07.646Z,101120.13
2022-10-31T18:58:35.696Z,101118.34
2022-10-31T19:01:07.713Z,101105.91
2022-10-31T19:03:35.859Z,101102.38
2022-10-31T19:06:03.984Z,101105.97
2022-10-31T19:08:32.106Z,101101.50
2022-10-31T19:11:06.425Z,101090.84
2022-10-31T19:13:34.333Z,101098.84
2022-10-31T19:16:07.114Z,101098.84
2022-10-31T19:18:34.925Z,101091.78
2022-10-31T19:21:06.936Z,101091.78
2022-10-31T19:23:34.898Z,101085.56
2022-10-31T19:26:07.161Z,101098.00
2022-10-31T19:28:36.740Z,101094.47
2022-10-31T19:31:05.642Z,101081.13
2022-10-31T19:33:36.038Z,101067.81
2022-10-31T19:36:08.252Z,101078.47
2022-10-31T19:38:37.528Z,101074.03
2022-10-31T19:41:08.747Z,101077.59
2022-10-31T19:43:37.016Z,101069.59
2022-10-31T19:46:09.080Z,101073.16
2022-10-31T19:48:40.331Z,101063.41
2022-10-31T19:51:10.150Z,101066.94
2022-10-31T19:53:39.167Z,101056.28
2022-10-31T19:56:12.561Z,101055.41
2022-10-31T19:58:40.894Z,101061.63
2022-10-31T20:01:10.104Z,101051.88
2022-10-31T20:03:39.952Z,101053.63
2022-10-31T20:06:08.740Z,101037.63
2022-10-31T20:08:39.534Z,101035.88
2022-10-31T20:11:09.252Z,101034.97
2022-10-31T20:13:37.164Z,101036.78
2022-10-31T20:16:06.865Z,101027.91
2022-10-31T20:18:35.789Z,101021.66
2022-10-31T20:21:05.266Z,101030.56
2022-10-31T20:23:33.538Z,101030.56
2022-10-31T20:26:01.948Z,101025.25
2022-10-31T20:28:32.241Z,101035.03
2022-10-31T20:31:00.168Z,101032.38
2022-10-31T20:33:28.406Z,101033.25
2022-10-31T20:35:56.275Z,101035.03
2022-10-31T20:38:24.213Z,101040.38
2022-10-31T20:40:52.057Z,101035.06
2022-10-31T20:43:19.904Z,101024.41
2022-10-31T20:45:49.150Z,101012.88
2022-10-31T20:48:16.932Z,101022.63
2022-10-31T20:50:44.873Z,101018.22
2022-10-31T20:53:12.705Z,101019.09
2022-10-31T20:55:40.506Z,101008.44
2022-10-31T20:58:08.365Z,101015.56
2022-10-31T21:00:36.787Z,101012.03
2022-10-31T21:03:06.064Z,101004.91
2022-10-31T21:05:33.902Z,100996.91
2022-10-31T21:08:01.694Z,101006.69
2022-10-31T21:10:30.002Z,101008.50
2022-10-31T21:12:57.820Z,101001.38
2022-10-31T21:15:25.591Z,100999.59
2022-10-31T21:17:54.237Z,100996.94
2022-10-31T21:20:23.461Z,100996.94
2022-10-31T21:22:51.543Z,100991.66
2022-10-31T21:25:19.311Z,100986.31
2022-10-31T21:27:47.133Z,100985.41
2022-10-31T21:30:15.384Z,100980.13
2022-10-31T21:32:43.239Z,100971.22
2022-10-31T21:35:11.076Z,100965.03
2022-10-31T21:37:40.493Z,100967.69
2022-10-31T21:40:09.483Z,100966.81
2022-10-31T21:42:37.420Z,100967.72
2022-10-31T21:45:05.672Z,100962.38
2022-10-31T21:47:33.528Z,100965.97
2022-10-31T21:50:01.368Z,100965.06
2022-10-31T21:52:29.171Z,100958.84
2022-10-31T21:54:57.365Z,100944.66
2022-10-31T21:57:25.283Z,100942.00
2022-10-31T21:59:53.134Z,100938.47
2022-10-31T22:02:21.026Z,100929.56
2022-10-31T22:04:51.035Z,100927.81
2022-10-31T22:07:19.586Z,100922.50
2022-10-31T22:09:47.474Z,100920.72
2022-10-31T22:12:16.960Z,100905.66
2022-10-31T22:14:44.811Z,100910.97
2022-10-31T22:17:12.693Z,100911.00
2022-10-31T22:19:40.755Z,100893.22
2022-10-31T22:22:08.651Z,100887.91
2022-10-31T22:24:36.466Z,100887.91
2022-10-31T22:27:04.474Z,100871.03
2022-10-31T22:29:35.406Z,100863.06
2022-10-31T22:32:03.706Z,100875.47
2022-10-31T22:34:31.549Z,100863.94
2022-10-31T22:36:59.498Z,100847.09
2022-10-31T22:39:27.284Z,100839.09
2022-10-31T22:41:55.140Z,100835.50
2022-10-31T22:44:22.928Z,100845.31
2022-10-31T22:46:52.116Z,100843.53
2022-10-31T22:49:19.884Z,100832.88
2022-10-31T22:51:50.981Z,100822.25
2022-10-31T22:54:20.121Z,100821.34
2022-10-31T22:56:48.199Z,100834.66
2022-10-31T22:59:17.351Z,100857.75
2022-10-31T23:01:46.036Z,100881.72
2022-10-31T23:04:16.737Z,100862.22
2022-10-31T23:06:45.086Z,100832.06
2022-10-31T23:09:15.940Z,100836.47
2022-10-31T23:11:44.155Z,100848.91
2022-10-31T23:14:14.240Z,100848.94
2022-10-31T23:16:45.212Z,100824.09
2022-10-31T23:19:16.904Z,100828.53
2022-10-31T23:21:56.051Z,100823.22
2022-10-31T23:24:26.194Z,100826.78
2022-10-31T23:27:06.082Z,100825.03
2022-10-31T23:29:34.132Z,100811.72
2022-10-31T23:32:02.155Z,100804.63
2022-10-31T23:34:31.363Z,100815.28
2022-10-31T23:36:59.265Z,100812.69
2022-10-31T23:39:27.162Z,100810.03
2022-10-31T23:41:55.023Z,100800.28
2022-10-31T23:44:22.786Z,100794.97
2022-10-31T23:46:50.630Z,100796.75
2022-10-31T23:49:18.520Z,100797.69
2022-10-31T23:51:47.709Z,100790.59
2022-10-31T23:54:15.582Z,100783.50
2022-10-31T23:56:43.531Z,100792.38
2022-10-31T23:59:11.712Z,100782.63
